Time;durP1;ratioP1;P1;durP2;ratioP2;P2;SDS_P1;SDS_P2;PMS_P1;PMS_P2;Temp;Humidity;BMP_temperature;BMP_pressure;BME280_temperature;BME280_humidity;BME280_pressure;Samples;Min_cycle;Max_cycle;Signal;HPM_P1;HPM_P2
2023/10/13 00:00:25;;;;;;;9.45;7.18;;;;;;;15.64;80.07;100208.28;20974398;28;20199;-79
2023/10/13 00:10:27;;;;;;;12.15;7.25;;;;;;;15.75;79.68;100207.38;20976784;28;20258;-86
2023/10/13 00:20:35;;;;;;;18.98;9.45;;;;;;;15.63;81.21;100196.13;20975052;28;20200;-86
2023/10/13 00:30:37;;;;;;;12.32;7.50;;;;;;;15.12;81.69;100185.84;20992624;28;20242;-81
2023/10/13 00:40:51;;;;;;;8.23;6.03;;;;;;;15.21;82.68;100163.81;20997244;28;20453;-87
2023/10/13 00:50:56;;;;;;;7.93;5.32;;;;;;;15.51;80.33;100147.19;21000784;28;20226;-80
2023/10/13 01:01:17;;;;;;;9.30;5.85;;;;;;;15.84;78.95;100150.47;21089375;28;20234;-80
2023/10/13 01:11:23;;;;;;;11.32;6.25;;;;;;;16.12;78.20;100147.44;21080051;28;20705;-87
2023/10/13 01:21:28;;;;;;;11.27;6.30;;;;;;;15.61;79.81;100124.75;21084636;28;20531;-79
2023/10/13 01:31:37;;;;;;;10.98;6.10;;;;;;;15.45;81.35;100123.97;21079717;28;20258;-80
2023/10/13 01:41:39;;;;;;;9.23;6.18;;;;;;;15.96;80.19;100106.97;21075705;28;20592;-88
2023/10/13 01:51:42;;;;;;;10.95;6.57;;;;;;;15.67;80.49;100094.94;21075189;28;20522;-83
2023/10/13 02:01:44;;;;;;;11.30;6.53;;;;;;;15.74;81.06;100082.91;21067509;28;20198;-88
2023/10/13 02:11:47;;;;;;;10.43;6.38;;;;;;;15.49;82.15;100065.31;21088560;28;20218;-85
2023/10/13 02:21:58;;;;;;;7.75;5.90;;;;;;;15.46;82.61;100054.69;21088041;28;20568;-81
2023/10/13 02:32:04;;;;;;;7.63;6.60;;;;;;;15.60;82.62;100038.00;21082716;28;20255;-80
2023/10/13 02:42:06;;;;;;;9.20;7.03;;;;;;;15.91;81.10;100034.28;21080133;28;20202;-80
2023/10/13 02:52:09;;;;;;;8.75;6.40;;;;;;;15.17;83.79;100018.38;21091801;28;20233;-83
2023/10/13 03:02:23;;;;;;;11.50;6.13;;;;;;;15.42;83.24;100019.78;21077126;28;20285;-86
2023/10/13 03:12:32;;;;;;;8.70;6.10;;;;;;;15.32;82.79;100000.50;21081628;28;20210;-86
2023/10/13 03:22:34;;;;;;;10.63;5.78;;;;;;;15.18;83.37;99986.81;21028958;28;20198;-81
2023/10/13 03:32:43;;;;;;;9.90;6.07;;;;;;;15.24;83.67;99967.50;21048247;28;20501;-81
2023/10/13 03:42:57;;;;;;;10.60;6.80;;;;;;;15.32;84.32;99955.16;21045832;28;20203;-83
2023/10/13 03:53:00;;;;;;;8.38;6.38;;;;;;;14.58;88.30;99945.63;21042693;28;20254;-85
2023/10/13 04:03:09;;;;;;;8.05;6.68;;;;;;;14.93;87.84;99929.53;21062800;28;20207;-78
2023/10/13 04:24:09;;;;;;;11.98;6.97;;;;;;;14.84;88.25;99894.88;21025158;28;20198;-86
2023/10/13 04:34:02;;;;;;;8.65;6.50;;;;;;;14.57;90.18;99871.19;21056983;28;20645;-77
2023/10/13 04:44:23;;;;;;;13.32;7.30;;;;;;;14.92;88.07;99848.56;21054037;28;20207;-86
2023/10/13 04:54:33;;;;;;;9.75;7.07;;;;;;;14.88;87.83;99835.50;21038125;28;20345;-88
2023/10/13 05:05:11;;;;;;;9.07;6.50;;;;;;;14.65;89.85;99821.22;21044026;28;20594;-79
2023/10/13 06:37:42;;;;;;;6.75;5.10;;;;;;;14.57;94.18;99796.72;21044316;28;20257;-87
2023/10/13 06:47:43;;;;;;;9.95;4.88;;;;;;;15.44;89.78;99765.03;21049639;28;20210;-79
2023/10/13 06:57:49;;;;;;;6.20;4.00;;;;;;;14.78;92.71;99763.25;21034879;28;20345;-84
2023/10/13 07:07:56;;;;;;;8.60;4.93;;;;;;;15.09;92.22;99757.47;21060078;28;20613;-86
2023/10/13 07:18:00;;;;;;;8.45;4.65;;;;;;;15.03;92.87;99758.97;21064905;28;20222;-80
2023/10/13 07:28:03;;;;;;;8.07;5.60;;;;;;;15.37;90.67;99767.72;21058531;28;20494;-79
2023/10/13 07:38:08;;;;;;;6.45;5.38;;;;;;;15.62;89.57;99751.19;21061188;28;20271;-90
2023/10/13 07:48:16;;;;;;;7.15;5.75;;;;;;;16.07;87.87;99727.69;21041690;28;20289;-81
2023/10/13 07:58:24;;;;;;;12.70;5.65;;;;;;;15.57;88.21;99718.31;21051401;28;20284;-80
2023/10/13 08:08:35;;;;;;;12.48;5.10;;;;;;;15.95;86.53;99714.53;21028193;28;20199;-80
2023/10/13 08:18:41;;;;;;;10.93;5.28;;;;;;;16.11;85.41;99705.81;21037588;28;20198;-83
2023/10/13 08:28:54;;;;;;;8.27;3.90;;;;;;;15.95;85.36;99696.69;21054628;28;20218;-80
2023/10/13 08:38:57;;;;;;;11.50;4.75;;;;;;;16.57;83.39;99680.16;21078487;28;20204;-82
2023/10/13 08:49:13;;;;;;;12.88;3.85;;;;;;;16.89;81.36;99657.84;21066730;28;20230;-80
2023/10/13 08:59:22;;;;;;;9.30;4.38;;;;;;;17.05;78.60;99655.56;21057615;28;20629;-80
2023/10/13 09:09:34;;;;;;;9.60;4.20;;;;;;;17.14;77.40;99633.34;21087318;28;20215;-83
2023/10/13 09:19:49;;;;;;;7.47;3.88;;;;;;;16.86;76.25;99628.19;21073001;28;20233;-81
2023/10/13 09:29:56;;;;;;;7.25;3.53;;;;;;;17.30;73.43;99616.06;21050435;28;20225;-81
2023/10/13 09:40:05;;;;;;;10.07;4.03;;;;;;;18.19;69.78;99572.00;21053937;28;20203;-86
2023/10/13 09:50:14;;;;;;;12.88;3.90;;;;;;;18.18;68.68;99584.63;21049517;28;20226;-85
2023/10/13 10:00:44;;;;;;;8.60;3.60;;;;;;;18.43;66.82;99581.91;21039258;28;20208;-87
2023/10/13 10:10:53;;;;;;;11.40;3.97;;;;;;;18.84;63.76;99574.72;21038834;28;20222;-84
2023/10/13 10:21:08;;;;;;;10.60;4.30;;;;;;;19.05;60.73;99579.66;21055515;28;20206;-82
2023/10/13 10:31:12;;;;;;;9.10;3.90;;;;;;;18.93;60.98;99568.63;21034214;28;20314;-87
2023/10/13 10:41:21;;;;;;;12.15;3.80;;;;;;;18.73;60.72;99564.50;21050642;28;20205;-83
2023/10/13 10:51:31;;;;;;;10.43;3.85;;;;;;;18.82;61.45;99547.84;21045872;28;20232;-82
2023/10/13 11:01:46;;;;;;;9.40;4.63;;;;;;;19.20;61.29;99510.00;21048058;28;20203;-86
2023/10/13 11:11:52;;;;;;;12.35;5.10;;;;;;;19.01;61.70;99504.69;21030839;28;20250;-80
2023/10/13 11:21:55;;;;;;;10.90;4.95;;;;;;;19.23;60.18;99503.47;21047851;28;20242;-85
2023/10/13 11:31:59;;;;;;;7.90;4.68;;;;;;;19.36;61.52;99460.28;21043933;28;20218;-86
2023/10/13 11:42:02;;;;;;;9.50;5.28;;;;;;;19.44;59.92;99444.78;21039569;28;20234;-81
2023/10/13 11:52:15;;;;;;;9.25;4.70;;;;;;;19.50;59.60;99443.94;21037672;28;20240;-82
2023/10/13 12:12:43;;;;;;;11.50;4.78;;;;;;;19.83;57.28;99402.66;21077895;28;20499;-79
2023/10/13 12:22:55;;;;;;;11.07;4.85;;;;;;;20.09;56.23;99403.38;21050920;28;20202;-81
2023/10/13 12:33:06;;;;;;;11.77;4.90;;;;;;;20.23;55.28;99395.53;21046345;28;20228;-85
2023/10/13 12:53:30;;;;;;;11.88;4.57;;;;;;;19.98;55.05;99361.41;21066834;28;20273;-85
2023/10/13 13:03:33;;;;;;;18.88;5.20;;;;;;;20.21;54.98;99360.88;21077734;28;20251;-79
2023/10/13 13:13:35;;;;;;;12.32;4.85;;;;;;;19.84;55.21;99367.19;21070486;28;20228;-79
2023/10/13 13:23:39;;;;;;;10.73;4.70;;;;;;;19.99;54.47;99376.50;21071194;28;20202;-81
2023/10/13 13:33:43;;;;;;;11.77;3.80;;;;;;;20.01;53.41;99365.47;21059967;28;20314;-80
2023/10/13 13:43:56;;;;;;;15.15;4.10;;;;;;;20.10;51.80;99362.16;21039539;28;20187;-79
2023/10/13 13:53:58;;;;;;;15.70;4.47;;;;;;;20.09;51.69;99352.78;21071180;28;20234;-84
2023/10/13 14:04:03;;;;;;;15.45;4.40;;;;;;;20.35;51.02;99339.94;21042687;28;20205;-82
2023/10/13 14:14:11;;;;;;;10.20;3.95;;;;;;;20.13;50.98;99338.50;21053554;28;20229;-79
2023/10/13 14:24:14;;;;;;;15.20;4.55;;;;;;;19.95;50.14;99347.97;21040121;28;20549;-83
2023/10/13 14:34:16;;;;;;;16.95;4.82;;;;;;;20.10;50.21;99328.69;21041168;28;20312;-81
2023/10/13 14:44:19;;;;;;;11.80;4.55;;;;;;;19.98;49.73;99327.16;21031331;28;20199;-79
2023/10/13 14:54:32;;;;;;;13.98;4.05;;;;;;;19.82;49.31;99323.94;21047955;28;20286;-80
2023/10/13 15:04:35;;;;;;;14.95;3.65;;;;;;;19.75;48.34;99315.41;21072440;28;20198;-87
2023/10/13 15:14:37;;;;;;;10.23;3.97;;;;;;;20.01;47.64;99309.16;21050273;28;20222;-80
2023/10/13 15:24:45;;;;;;;9.25;3.85;;;;;;;19.72;47.92;99313.41;21040412;28;20575;-80
2023/10/13 15:34:46;;;;;;;12.88;4.10;;;;;;;19.55;47.78;99314.31;21044083;28;20234;-81
2023/10/13 15:44:50;;;;;;;13.23;3.63;;;;;;;19.70;47.12;99313.00;21075136;28;20195;-80
2023/10/13 15:54:51;;;;;;;11.00;3.67;;;;;;;20.17;45.24;99307.84;21056357;28;20257;-79
2023/10/13 16:04:59;;;;;;;11.95;4.15;;;;;;;19.79;45.99;99307.66;21050254;28;20334;-81
2023/10/13 16:15:01;;;;;;;12.23;4.00;;;;;;;19.84;46.35;99292.13;21038408;28;20245;-83
2023/10/13 16:25:11;;;;;;;11.15;4.35;;;;;;;19.84;46.13;99292.94;21044159;28;20215;-84
2023/10/13 16:35:16;;;;;;;11.07;3.83;;;;;;;19.69;45.43;99291.41;21046663;28;20218;-81
2023/10/13 16:45:22;;;;;;;12.90;4.32;;;;;;;19.78;45.60;99288.88;21033400;28;20202;-82
2023/10/13 16:55:24;;;;;;;14.30;4.35;;;;;;;19.60;46.96;99293.91;21082407;28;20225;-81
2023/10/13 17:05:28;;;;;;;11.30;4.05;;;;;;;19.52;49.06;99286.59;21063113;28;20201;-86
2023/10/13 17:15:31;;;;;;;11.60;4.32;;;;;;;18.95;51.28;99276.22;21045019;28;20219;-85
2023/10/13 17:25:35;;;;;;;8.43;3.70;;;;;;;18.77;52.37;99280.31;21077929;28;20194;-80
2023/10/13 17:35:37;;;;;;;11.57;3.65;;;;;;;18.57;54.08;99260.78;21087288;28;20222;-83
2023/10/13 17:45:40;;;;;;;8.30;3.92;;;;;;;17.92;57.68;99246.94;21054443;28;20198;-86
2023/10/13 17:55:41;;;;;;;7.50;4.05;;;;;;;18.05;56.69;99245.38;21058749;28;20226;-80
2023/10/13 18:05:46;;;;;;;7.63;3.42;;;;;;;18.21;57.96;99239.25;21060404;28;20224;-80
2023/10/13 18:15:49;;;;;;;9.32;3.75;;;;;;;17.83;58.56;99233.09;21060092;28;20488;-88
2023/10/13 18:25:52;;;;;;;6.32;3.10;;;;;;;17.63;59.93;99231.06;21064863;28;20194;-86
2023/10/13 18:35:54;;;;;;;7.90;3.97;;;;;;;17.76;61.59;99216.03;21053038;28;20531;-79
2023/10/13 18:46:06;;;;;;;9.57;4.35;;;;;;;17.79;60.89;99198.16;21070681;28;20202;-79
2023/10/13 18:56:09;;;;;;;12.30;4.53;;;;;;;17.58;61.36;99186.72;21065309;28;20250;-85
2023/10/13 19:06:15;;;;;;;9.00;4.38;;;;;;;17.67;60.16;99189.97;21066169;28;20264;-82
2023/10/13 19:16:18;;;;;;;8.90;4.45;;;;;;;17.39;62.73;99185.09;21062211;28;20225;-81
2023/10/13 19:26:24;;;;;;;12.50;4.25;;;;;;;17.08;64.88;99163.03;21073356;28;20203;-80
2023/10/13 19:36:25;;;;;;;8.82;4.30;;;;;;;17.43;64.79;99133.88;21045011;28;20309;-83
2023/10/13 19:46:29;;;;;;;7.55;4.20;;;;;;;16.88;66.21;99096.41;21060751;28;20195;-81
2023/10/13 19:56:32;;;;;;;9.63;4.78;;;;;;;17.02;65.54;99091.53;21027194;28;20238;-86
2023/10/13 20:06:35;;;;;;;12.27;4.68;;;;;;;17.19;65.29;99119.19;21044520;28;20206;-80
2023/10/13 20:16:36;;;;;;;9.23;4.63;;;;;;;17.13;65.28;99125.72;21048120;28;20309;-82
2023/10/13 20:26:41;;;;;;;11.05;4.85;;;;;;;16.93;68.02;99138.63;21080619;28;20361;-86
2023/10/13 20:36:43;;;;;;;13.02;6.03;;;;;;;16.50;75.45;99122.22;21068408;28;20214;-85
2023/10/13 20:46:46;;;;;;;11.85;5.63;;;;;;;16.49;75.20;99114.91;21065389;28;20225;-84
2023/10/13 20:56:48;;;;;;;9.32;5.22;;;;;;;16.81;75.64;99097.19;21058935;28;20227;-80
2023/10/13 21:06:51;;;;;;;11.05;5.65;;;;;;;15.72;84.06;99078.34;21060397;28;20199;-89
2023/10/13 21:16:53;;;;;;;10.93;5.70;;;;;;;15.25;87.00;99054.47;21064156;28;20228;-85
2023/10/13 21:26:56;;;;;;;8.27;5.30;;;;;;;15.84;78.90;99034.69;21052459;28;20198;-83
2023/10/13 21:36:59;;;;;;;11.82;5.60;;;;;;;16.30;76.48;99026.38;21035804;28;20226;-89
2023/10/13 21:47:02;;;;;;;10.65;5.30;;;;;;;16.00;77.19;98995.44;21054354;28;20225;-86
2023/10/13 21:57:05;;;;;;;13.68;5.47;;;;;;;16.01;75.39;98994.22;21079508;28;20788;-85
2023/10/13 22:07:08;;;;;;;16.58;5.60;;;;;;;16.36;72.32;98983.03;21048365;28;20201;-85
2023/10/13 22:17:12;;;;;;;11.63;5.45;;;;;;;16.58;70.69;98974.59;21084574;28;20326;-80
2023/10/13 22:27:17;;;;;;;12.95;5.60;;;;;;;16.73;69.73;98970.56;21087920;28;20665;-87
2023/10/13 22:37:19;;;;;;;9.63;5.25;;;;;;;16.85;70.32;98961.63;21065082;28;20253;-88
2023/10/13 22:47:22;;;;;;;13.35;4.97;;;;;;;16.71;69.24;98944.56;21084939;28;20285;-80
2023/10/13 22:57:23;;;;;;;13.80;5.90;;;;;;;16.50;69.69;98937.63;21080152;28;20226;-88
2023/10/13 23:07:26;;;;;;;9.18;5.43;;;;;;;16.25;70.52;98936.75;21046686;28;20507;-82
2023/10/13 23:17:29;;;;;;;9.80;5.45;;;;;;;16.47;70.11;98924.25;21061696;28;20222;-81
2023/10/13 23:27:32;;;;;;;10.55;5.90;;;;;;;16.93;67.86;98900.75;21061826;28;20217;-84
2023/10/13 23:37:38;;;;;;;10.73;5.75;;;;;;;16.54;68.52;98889.38;21064784;28;20218;-82
2023/10/13 23:47:46;;;;;;;10.57;5.47;;;;;;;16.71;68.65;98907.66;21056630;28;20225;-80
2023/10/13 23:57:50;;;;;;;9.88;5.93;;;;;;;16.67;68.78;98904.00;21078867;28;20226;-80
